Time;durP1;ratioP1;P1;durP2;ratioP2;P2;SDS_P1;SDS_P2;PMS_P1;PMS_P2;Temp;Humidity;BMP_temperature;BMP_pressure;BME280_temperature;BME280_humidity;BME280_pressure;Samples;Min_cycle;Max_cycle;Signal;HPM_P1;HPM_P2
2023/03/23 00:00:51;;;;;;;2.45;1.77;;;;;;;;;;6046057;23;20023;-77
2023/03/23 00:03:18;;;;;;;8.07;1.85;;;;;;;;;;6046095;23;20026;-76
2023/03/23 00:05:50;;;;;;;3.55;1.70;;;;;;;;;;6069425;23;20026;-76
2023/03/23 00:08:17;;;;;;;2.35;1.48;;;;;;;;;;6048263;23;20022;-77
2023/03/23 00:10:43;;;;;;;1.92;1.17;;;;;;;;;;6046659;23;20027;-76
2023/03/23 00:13:10;;;;;;;4.00;1.60;;;;;;;;;;6094024;23;20069;-77
2023/03/23 00:15:41;;;;;;;2.45;1.70;;;;;;;;;;6045987;23;20782;-77
2023/03/23 00:18:06;;;;;;;4.18;1.65;;;;;;;;;;6047499;23;20243;-77
2023/03/23 00:20:40;;;;;;;3.38;1.50;;;;;;;;;;6022933;23;20027;-77
2023/03/23 00:23:06;;;;;;;1.55;1.40;;;;;;;;;;6072224;23;20061;-77
2023/03/23 00:25:32;;;;;;;3.40;1.42;;;;;;;;;;6046661;23;20200;-77
2023/03/23 00:27:58;;;;;;;2.00;1.40;;;;;;;;;;6046592;23;20113;-77
2023/03/23 00:30:24;;;;;;;4.65;2.47;;;;;;;;;;6046471;23;20469;-78
2023/03/23 00:32:50;;;;;;;1.95;1.65;;;;;;;;;;6071057;23;20050;-77
2023/03/23 00:35:17;;;;;;;2.60;1.60;;;;;;;;;;6046885;23;20516;-78
2023/03/23 00:37:43;;;;;;;1.70;1.35;;;;;;;;;;6046258;23;20078;-77
2023/03/23 00:40:10;;;;;;;2.53;1.65;;;;;;;;;;6046289;23;20022;-77
2023/03/23 00:42:37;;;;;;;2.97;1.60;;;;;;;;;;6046645;23;20037;-76
2023/03/23 00:45:10;;;;;;;2.38;1.40;;;;;;;;;;6047339;23;20045;-77
2023/03/23 00:47:36;;;;;;;2.33;1.55;;;;;;;;;;6048326;23;20050;-78
2023/03/23 00:50:05;;;;;;;5.68;1.80;;;;;;;;;;6046592;23;20037;-78
2023/03/23 00:52:30;;;;;;;1.77;1.20;;;;;;;;;;6045723;23;20064;-77
2023/03/23 00:54:56;;;;;;;3.08;1.60;;;;;;;;;;6046002;23;20022;-77
2023/03/23 00:57:23;;;;;;;2.15;1.40;;;;;;;;;;6021159;23;20022;-77
2023/03/23 00:59:50;;;;;;;2.08;1.05;;;;;;;;;;6045846;23;20026;-77
2023/03/23 01:02:17;;;;;;;1.20;1.10;;;;;;;;;;6045897;23;20338;-76
2023/03/23 01:04:46;;;;;;;2.03;1.42;;;;;;;;;;6048142;23;20357;-77
2023/03/23 01:07:17;;;;;;;2.70;1.60;;;;;;;;;;6073137;23;20072;-77
2023/03/23 01:09:44;;;;;;;4.88;1.10;;;;;;;;;;6052604;23;20364;-77
2023/03/23 01:12:12;;;;;;;4.50;2.08;;;;;;;;;;6051781;23;20469;-77
2023/03/23 01:14:38;;;;;;;1.25;1.13;;;;;;;;;;6050532;23;20485;-77
2023/03/23 01:17:03;;;;;;;1.73;0.98;;;;;;;;;;6023829;23;20045;-78
2023/03/23 01:19:29;;;;;;;1.48;1.10;;;;;;;;;;6048007;23;20342;-78
2023/03/23 01:21:55;;;;;;;2.05;1.00;;;;;;;;;;6047823;23;20023;-77
2023/03/23 01:24:20;;;;;;;2.38;1.00;;;;;;;;;;6047314;23;20453;-77
2023/03/23 01:26:46;;;;;;;2.03;0.90;;;;;;;;;;6047316;23;20101;-78
2023/03/23 01:29:11;;;;;;;1.77;1.33;;;;;;;;;;6047280;23;20030;-77
2023/03/23 01:31:38;;;;;;;1.70;1.45;;;;;;;;;;6047427;23;20030;-77
2023/03/23 01:34:04;;;;;;;1.10;1.00;;;;;;;;;;6095412;23;20473;-77
2023/03/23 01:36:32;;;;;;;2.30;1.23;;;;;;;;;;6046932;23;20029;-77
2023/03/23 01:39:03;;;;;;;2.28;1.38;;;;;;;;;;6047334;23;20030;-77
2023/03/23 01:41:29;;;;;;;1.80;1.30;;;;;;;;;;6048655;23;20357;-78
2023/03/23 01:44:04;;;;;;;2.38;1.55;;;;;;;;;;6050711;23;20014;-79
2023/03/23 01:46:31;;;;;;;1.45;1.10;;;;;;;;;;6049677;23;20026;-76
2023/03/23 01:48:59;;;;;;;2.50;1.10;;;;;;;;;;6046289;23;20037;-75
2023/03/23 01:51:25;;;;;;;2.33;1.20;;;;;;;;;;6045766;23;20481;-76
2023/03/23 01:53:57;;;;;;;1.98;1.42;;;;;;;;;;6048963;23;20105;-81
2023/03/23 01:56:25;;;;;;;3.22;1.20;;;;;;;;;;6049427;23;20527;-78
2023/03/23 01:58:52;;;;;;;2.53;1.10;;;;;;;;;;6046964;23;20022;-77
2023/03/23 02:01:18;;;;;;;3.72;1.35;;;;;;;;;;6046115;23;20106;-78
2023/03/23 02:03:44;;;;;;;2.20;1.25;;;;;;;;;;6049810;23;20018;-78
2023/03/23 02:06:10;;;;;;;3.95;1.63;;;;;;;;;;6049255;23;20034;-78
2023/03/23 02:08:36;;;;;;;3.70;1.88;;;;;;;;;;6049588;23;20018;-78
2023/03/23 02:11:01;;;;;;;2.42;1.63;;;;;;;;;;6049654;23;20037;-76
2023/03/23 02:13:27;;;;;;;3.90;1.45;;;;;;;;;;6049477;23;20022;-78
2023/03/23 02:16:12;;;;;;;2.55;1.30;;;;;;;;;;6049913;23;20050;-78
2023/03/23 02:18:50;;;;;;;1.33;1.23;;;;;;;;;;6049903;23;20494;-78
2023/03/23 02:21:15;;;;;;;2.15;1.40;;;;;;;;;;6072223;23;20026;-77
2023/03/23 02:23:47;;;;;;;2.15;1.20;;;;;;;;;;6046910;23;20372;-76
2023/03/23 02:26:16;;;;;;;3.15;1.50;;;;;;;;;;6070957;23;20023;-77
2023/03/23 02:29:20;;;;;;;2.63;1.15;;;;;;;;;;6070473;23;20018;-77
2023/03/23 02:31:58;;;;;;;1.58;1.20;;;;;;;;;;6048784;23;20023;-78
2023/03/23 02:34:51;;;;;;;3.00;1.20;;;;;;;;;;6096858;23;20022;-78
2023/03/23 02:37:24;;;;;;;3.47;1.40;;;;;;;;;;6046505;23;20027;-78
2023/03/23 02:40:06;;;;;;;1.20;1.10;;;;;;;;;;6049058;23;20033;-78
2023/03/23 02:42:32;;;;;;;2.42;1.23;;;;;;;;;;6048337;23;20026;-78
2023/03/23 02:44:59;;;;;;;2.22;1.45;;;;;;;;;;6048334;23;20065;-78
2023/03/23 02:47:25;;;;;;;4.60;1.60;;;;;;;;;;6048191;23;20022;-77
2023/03/23 02:49:53;;;;;;;1.45;1.13;;;;;;;;;;6048342;23;20049;-76
2023/03/23 02:52:22;;;;;;;1.48;1.10;;;;;;;;;;6046139;23;20029;-77
2023/03/23 02:54:48;;;;;;;4.03;1.00;;;;;;;;;;6046575;23;20034;-78
2023/03/23 02:57:14;;;;;;;3.63;2.20;;;;;;;;;;6048206;23;20022;-78
2023/03/23 02:59:40;;;;;;;1.52;1.40;;;;;;;;;;6024696;23;20030;-78
2023/03/23 03:02:17;;;;;;;1.70;1.13;;;;;;;;;;6047010;23;20046;-78
2023/03/23 03:04:48;;;;;;;1.02;0.82;;;;;;;;;;6095240;23;20065;-78
2023/03/23 03:07:38;;;;;;;2.55;1.00;;;;;;;;;;6048563;23;20469;-79
2023/03/23 03:10:06;;;;;;;3.33;1.23;;;;;;;;;;6046255;23;20026;-76
2023/03/23 03:12:58;;;;;;;1.85;1.45;;;;;;;;;;6044589;23;20061;-76
2023/03/23 03:15:33;;;;;;;3.67;1.13;;;;;;;;;;6043209;23;20033;-77
2023/03/23 03:18:12;;;;;;;2.15;1.40;;;;;;;;;;6047256;23;20388;-76
2023/03/23 03:20:43;;;;;;;2.25;1.30;;;;;;;;;;6046963;23;20065;-76
2023/03/23 03:23:12;;;;;;;1.88;1.08;;;;;;;;;;6047333;23;20076;-77
2023/03/23 03:25:40;;;;;;;2.00;1.25;;;;;;;;;;6094488;23;20052;-77
2023/03/23 03:28:06;;;;;;;3.10;1.42;;;;;;;;;;6047020;23;20037;-77
2023/03/23 03:30:33;;;;;;;1.77;1.40;;;;;;;;;;6046253;23;20030;-76
2023/03/23 03:33:00;;;;;;;1.98;1.30;;;;;;;;;;6046901;23;20023;-77
2023/03/23 03:35:26;;;;;;;1.38;1.27;;;;;;;;;;6071261;23;20559;-77
2023/03/23 03:37:51;;;;;;;1.42;1.23;;;;;;;;;;6047312;23;20075;-77
2023/03/23 03:40:19;;;;;;;2.35;1.27;;;;;;;;;;6046796;23;20043;-76
2023/03/23 03:42:45;;;;;;;1.30;1.10;;;;;;;;;;6046133;23;20061;-77
2023/03/23 03:45:16;;;;;;;2.28;1.33;;;;;;;;;;6046508;23;20019;-78
2023/03/23 03:47:42;;;;;;;2.10;1.40;;;;;;;;;;6046118;23;20029;-76
2023/03/23 03:50:08;;;;;;;2.58;1.73;;;;;;;;;;6050788;23;20082;-78
2023/03/23 03:52:34;;;;;;;2.30;1.40;;;;;;;;;;6050325;23;20050;-77
2023/03/23 03:55:00;;;;;;;2.35;1.58;;;;;;;;;;6048692;23;20056;-77
2023/03/23 03:57:26;;;;;;;4.03;1.98;;;;;;;;;;6048330;23;20030;-78
2023/03/23 03:59:52;;;;;;;3.92;1.90;;;;;;;;;;6048535;23;20026;-79
2023/03/23 04:02:19;;;;;;;2.97;1.88;;;;;;;;;;6047439;23;20495;-76
2023/03/23 04:04:49;;;;;;;2.55;1.63;;;;;;;;;;6045183;23;20065;-76
2023/03/23 04:07:16;;;;;;;2.88;1.88;;;;;;;;;;6045179;23;20029;-76
2023/03/23 04:09:46;;;;;;;3.15;1.77;;;;;;;;;;6044732;23;20557;-76
2023/03/23 04:12:13;;;;;;;4.90;1.90;;;;;;;;;;6044726;23;20018;-76
2023/03/23 04:14:38;;;;;;;1.95;1.45;;;;;;;;;;6045441;23;20065;-76
2023/03/23 04:17:04;;;;;;;2.47;1.73;;;;;;;;;;6045067;23;20023;-76
2023/03/23 04:19:32;;;;;;;2.53;1.73;;;;;;;;;;6046518;23;20018;-77
2023/03/23 04:21:58;;;;;;;2.10;1.52;;;;;;;;;;6047204;23;20026;-77
2023/03/23 04:24:24;;;;;;;2.53;1.60;;;;;;;;;;6046786;23;20050;-77
2023/03/23 04:26:51;;;;;;;2.83;1.60;;;;;;;;;;6047478;23;20085;-77
2023/03/23 04:29:19;;;;;;;1.83;1.20;;;;;;;;;;6050173;23;20082;-77
2023/03/23 04:31:45;;;;;;;2.50;1.50;;;;;;;;;;6047782;23;20365;-77
2023/03/23 04:34:13;;;;;;;1.67;1.30;;;;;;;;;;6047333;23;20038;-77
2023/03/23 04:36:40;;;;;;;2.58;1.35;;;;;;;;;;6047306;23;20046;-77
2023/03/23 04:39:09;;;;;;;2.15;1.10;;;;;;;;;;6048316;23;20019;-76
2023/03/23 04:41:39;;;;;;;1.48;1.20;;;;;;;;;;6047978;23;20085;-77
2023/03/23 04:44:05;;;;;;;4.03;1.88;;;;;;;;;;6049181;23;20062;-77
2023/03/23 04:46:31;;;;;;;2.63;1.55;;;;;;;;;;6049113;23;20026;-78
2023/03/23 04:49:02;;;;;;;5.18;1.40;;;;;;;;;;6025167;23;20337;-76
2023/03/23 04:51:28;;;;;;;1.80;1.20;;;;;;;;;;6050009;23;20057;-76
2023/03/23 04:53:54;;;;;;;3.90;1.30;;;;;;;;;;6048726;23;20015;-77
2023/03/23 04:56:20;;;;;;;1.55;1.23;;;;;;;;;;6047724;23;20483;-76
2023/03/23 04:58:46;;;;;;;2.50;1.15;;;;;;;;;;6047799;23;20393;-77
2023/03/23 05:01:17;;;;;;;1.30;1.10;;;;;;;;;;6049463;23;20085;-78
2023/03/23 05:03:43;;;;;;;2.70;1.38;;;;;;;;;;6046990;23;20018;-72
2023/03/23 05:06:09;;;;;;;1.65;1.00;;;;;;;;;;6069113;23;20026;-73
2023/03/23 05:08:38;;;;;;;2.85;1.25;;;;;;;;;;6068022;23;20018;-73
2023/03/23 05:11:05;;;;;;;1.55;1.20;;;;;;;;;;6095585;23;20102;-78
2023/03/23 05:13:31;;;;;;;3.33;1.00;;;;;;;;;;6048446;23;20025;-78
2023/03/23 05:15:57;;;;;;;4.38;1.30;;;;;;;;;;6096079;23;20037;-77
2023/03/23 05:18:23;;;;;;;2.63;1.55;;;;;;;;;;6047056;23;20041;-77
2023/03/23 05:20:52;;;;;;;2.13;1.20;;;;;;;;;;6046543;23;20023;-77
2023/03/23 05:23:20;;;;;;;1.80;1.20;;;;;;;;;;6048565;23;20058;-77
2023/03/23 05:25:53;;;;;;;2.65;1.25;;;;;;;;;;6047988;23;20029;-77
2023/03/23 05:28:18;;;;;;;2.10;1.08;;;;;;;;;;6047187;23;20070;-76
2023/03/23 05:30:44;;;;;;;3.67;1.30;;;;;;;;;;6046814;23;20065;-77
2023/03/23 05:33:09;;;;;;;3.50;1.30;;;;;;;;;;6046684;23;20022;-77
2023/03/23 05:35:36;;;;;;;2.05;1.60;;;;;;;;;;6047470;23;20026;-78
2023/03/23 05:38:07;;;;;;;2.80;1.45;;;;;;;;;;6047067;23;20018;-77
2023/03/23 05:40:33;;;;;;;3.55;1.60;;;;;;;;;;6023095;23;20029;-76
2023/03/23 05:42:59;;;;;;;2.85;1.75;;;;;;;;;;6046934;23;20018;-76
2023/03/23 05:45:26;;;;;;;2.33;1.55;;;;;;;;;;6047271;23;20029;-77
2023/03/23 05:47:51;;;;;;;3.60;1.90;;;;;;;;;;6047889;23;20022;-77
2023/03/23 05:50:17;;;;;;;2.88;1.83;;;;;;;;;;6047151;23;20083;-76
2023/03/23 05:52:43;;;;;;;2.95;1.98;;;;;;;;;;6048173;23;20049;-77
2023/03/23 05:55:09;;;;;;;3.00;2.03;;;;;;;;;;6072008;23;20030;-77
2023/03/23 05:57:35;;;;;;;4.07;2.22;;;;;;;;;;6047370;23;20322;-78
2023/03/23 06:00:07;;;;;;;3.38;2.10;;;;;;;;;;6048243;23;20033;-77
2023/03/23 06:02:34;;;;;;;3.35;1.92;;;;;;;;;;6025048;23;20029;-76
2023/03/23 06:04:59;;;;;;;2.75;1.90;;;;;;;;;;6046839;23;20080;-77
2023/03/23 06:07:25;;;;;;;5.03;2.05;;;;;;;;;;6046497;23;20064;-77
2023/03/23 06:09:51;;;;;;;3.25;1.90;;;;;;;;;;6048967;23;20065;-78
2023/03/23 06:12:19;;;;;;;6.40;2.53;;;;;;;;;;6048449;23;20030;-77
2023/03/23 06:14:46;;;;;;;6.93;2.50;;;;;;;;;;6049208;23;20022;-79
2023/03/23 06:17:12;;;;;;;4.75;2.25;;;;;;;;;;6048031;23;20023;-78
2023/03/23 06:19:38;;;;;;;6.38;2.22;;;;;;;;;;6048363;23;20101;-77
2023/03/23 06:22:05;;;;;;;5.18;1.98;;;;;;;;;;6048106;23;20057;-77
2023/03/23 06:24:32;;;;;;;4.80;2.15;;;;;;;;;;6047660;23;20548;-79
2023/03/23 06:26:59;;;;;;;7.20;2.22;;;;;;;;;;6048818;23;20078;-77
2023/03/23 06:29:24;;;;;;;4.47;2.38;;;;;;;;;;6048532;23;20026;-76
2023/03/23 06:31:56;;;;;;;4.00;1.98;;;;;;;;;;6047134;23;20062;-77
2023/03/23 06:34:22;;;;;;;6.85;2.25;;;;;;;;;;6047404;23;20022;-75
2023/03/23 06:36:48;;;;;;;2.90;2.05;;;;;;;;;;6047096;23;20022;-77
2023/03/23 06:39:14;;;;;;;3.90;2.80;;;;;;;;;;6023910;23;20022;-78
2023/03/23 06:41:40;;;;;;;4.15;1.80;;;;;;;;;;6048058;23;20023;-78
2023/03/23 06:44:06;;;;;;;3.33;1.88;;;;;;;;;;6047263;23;20018;-78
2023/03/23 06:46:35;;;;;;;4.55;1.80;;;;;;;;;;6047202;23;20491;-79
2023/03/23 06:49:00;;;;;;;4.45;1.95;;;;;;;;;;6047234;23;20054;-77
2023/03/23 06:51:26;;;;;;;4.25;1.75;;;;;;;;;;6047058;23;20148;-78
2023/03/23 06:53:52;;;;;;;3.63;1.67;;;;;;;;;;6047962;23;20019;-79
2023/03/23 06:56:17;;;;;;;4.45;1.52;;;;;;;;;;6017255;23;20030;-77
2023/03/23 06:58:48;;;;;;;4.15;2.00;;;;;;;;;;6045841;23;20443;-83
2023/03/23 07:01:14;;;;;;;3.80;1.83;;;;;;;;;;6049645;23;20026;-79
2023/03/23 07:03:41;;;;;;;2.90;1.70;;;;;;;;;;6049479;23;20014;-80
2023/03/23 07:06:07;;;;;;;3.72;1.60;;;;;;;;;;6047626;23;20109;-74
2023/03/23 07:08:33;;;;;;;5.75;1.92;;;;;;;;;;6048478;23;20082;-79
2023/03/23 07:10:59;;;;;;;2.35;1.95;;;;;;;;;;6047812;23;20045;-81
2023/03/23 07:13:25;;;;;;;4.15;2.25;;;;;;;;;;6048803;23;20015;-80
2023/03/23 07:15:51;;;;;;;3.85;1.88;;;;;;;;;;6027223;23;20026;-81
2023/03/23 07:18:17;;;;;;;4.47;2.15;;;;;;;;;;6049150;23;20029;-81
2023/03/23 07:20:42;;;;;;;1.95;1.50;;;;;;;;;;6025344;23;20027;-81
2023/03/23 07:23:08;;;;;;;1.63;1.40;;;;;;;;;;6048153;23;20049;-81
2023/03/23 07:25:34;;;;;;;3.88;1.40;;;;;;;;;;6048878;23;20026;-80
2023/03/23 07:28:01;;;;;;;3.58;1.50;;;;;;;;;;6048071;23;20445;-81
2023/03/23 07:30:28;;;;;;;5.07;1.40;;;;;;;;;;6047593;23;20034;-81
2023/03/23 07:32:54;;;;;;;3.63;1.52;;;;;;;;;;6048005;23;20353;-81
2023/03/23 07:35:20;;;;;;;2.13;1.40;;;;;;;;;;6048908;23;20481;-81
2023/03/23 07:37:48;;;;;;;3.50;1.17;;;;;;;;;;6045869;23;20057;-79
2023/03/23 07:40:14;;;;;;;2.83;1.15;;;;;;;;;;6045644;23;20061;-80
2023/03/23 07:42:45;;;;;;;2.05;1.00;;;;;;;;;;6045132;23;20079;-79
2023/03/23 07:45:12;;;;;;;2.45;1.63;;;;;;;;;;6044678;23;20018;-80
2023/03/23 07:47:38;;;;;;;3.53;1.63;;;;;;;;;;6046475;23;20146;-80
2023/03/23 07:50:05;;;;;;;4.40;1.45;;;;;;;;;;6045886;23;20026;-79
2023/03/23 07:52:31;;;;;;;9.88;2.08;;;;;;;;;;6042651;23;20019;-78
2023/03/23 07:54:57;;;;;;;3.17;1.50;;;;;;;;;;6015128;23;20057;-81
2023/03/23 07:57:22;;;;;;;3.88;1.05;;;;;;;;;;6044031;23;20030;-78
2023/03/23 07:59:48;;;;;;;2.83;1.40;;;;;;;;;;6047331;23;20105;-76
2023/03/23 08:02:23;;;;;;;3.83;1.33;;;;;;;;;;6047756;23;20029;-79
2023/03/23 08:04:50;;;;;;;3.15;1.33;;;;;;;;;;6047967;23;20031;-79
2023/03/23 08:07:18;;;;;;;2.83;1.23;;;;;;;;;;6046047;23;20033;-81
2023/03/23 08:09:46;;;;;;;2.63;1.00;;;;;;;;;;6024645;23;20030;-82
2023/03/23 08:12:15;;;;;;;1.90;1.45;;;;;;;;;;6050064;23;20022;-82
2023/03/23 08:14:44;;;;;;;1.80;1.20;;;;;;;;;;6073799;23;20473;-81
2023/03/23 08:17:09;;;;;;;3.15;1.33;;;;;;;;;;6052520;23;20029;-82
2023/03/23 08:19:37;;;;;;;1.40;1.20;;;;;;;;;;6051729;23;20364;-82
2023/03/23 08:22:03;;;;;;;4.53;2.10;;;;;;;;;;6051260;23;20065;-80
2023/03/23 08:24:30;;;;;;;3.03;1.50;;;;;;;;;;6051944;23;20030;-80
2023/03/23 08:26:56;;;;;;;2.38;1.60;;;;;;;;;;6028260;23;20090;-80
2023/03/23 08:29:23;;;;;;;5.78;1.58;;;;;;;;;;6051812;23;20022;-81
2023/03/23 08:31:50;;;;;;;4.00;1.65;;;;;;;;;;6050199;23;20356;-82
2023/03/23 08:34:16;;;;;;;2.90;1.55;;;;;;;;;;6049530;23;20018;-79
2023/03/23 08:36:43;;;;;;;2.22;1.35;;;;;;;;;;6048065;23;20029;-79
2023/03/23 08:39:10;;;;;;;5.72;1.80;;;;;;;;;;6046096;23;20026;-77
2023/03/23 08:41:36;;;;;;;2.08;1.20;;;;;;;;;;6068990;23;20109;-83
2023/03/23 08:44:03;;;;;;;3.10;1.48;;;;;;;;;;6046778;23;20038;-81
2023/03/23 08:46:28;;;;;;;1.42;1.30;;;;;;;;;;6095370;23;20022;-78
2023/03/23 08:48:54;;;;;;;3.63;1.55;;;;;;;;;;6044518;23;20074;-76
2023/03/23 08:51:20;;;;;;;3.92;1.35;;;;;;;;;;6044025;23;20106;-77
2023/03/23 08:53:45;;;;;;;1.50;1.10;;;;;;;;;;6044845;23;20029;-77
2023/03/23 08:56:12;;;;;;;2.20;1.00;;;;;;;;;;6047138;23;20031;-79
2023/03/23 08:58:38;;;;;;;3.78;1.40;;;;;;;;;;6048276;23;20030;-79
2023/03/23 09:01:06;;;;;;;1.77;1.20;;;;;;;;;;6049862;23;20066;-80
2023/03/23 09:03:34;;;;;;;3.45;1.50;;;;;;;;;;6048982;23;20406;-81
2023/03/23 09:06:01;;;;;;;3.10;1.40;;;;;;;;;;6050124;23;20026;-80
2023/03/23 09:08:30;;;;;;;2.53;1.17;;;;;;;;;;6049514;23;20041;-79
2023/03/23 09:10:59;;;;;;;2.60;1.23;;;;;;;;;;6048994;23;20026;-80
2023/03/23 09:13:25;;;;;;;5.20;1.90;;;;;;;;;;6046667;23;20093;-82
2023/03/23 09:15:51;;;;;;;3.13;1.33;;;;;;;;;;6049542;23;20078;-80
2023/03/23 09:18:18;;;;;;;2.15;1.30;;;;;;;;;;6054836;23;20563;-80
2023/03/23 09:20:45;;;;;;;2.85;1.30;;;;;;;;;;6050937;23;20046;-80
2023/03/23 09:23:12;;;;;;;1.20;1.08;;;;;;;;;;6051377;23;20023;-79
2023/03/23 09:25:38;;;;;;;2.15;1.40;;;;;;;;;;6051188;23;20023;-80
2023/03/23 09:28:04;;;;;;;2.85;1.23;;;;;;;;;;6050254;23;20089;-79
2023/03/23 09:30:32;;;;;;;2.88;1.20;;;;;;;;;;6050285;23;20030;-80
2023/03/23 09:33:00;;;;;;;3.53;1.70;;;;;;;;;;6051428;23;20085;-79
2023/03/23 09:35:27;;;;;;;3.55;1.50;;;;;;;;;;6052048;23;20030;-79
2023/03/23 09:37:54;;;;;;;3.53;2.03;;;;;;;;;;6051404;23;20029;-80
2023/03/23 09:40:21;;;;;;;2.88;1.65;;;;;;;;;;6027318;23;20022;-80
2023/03/23 09:43:06;;;;;;;2.38;1.70;;;;;;;;;;6051189;23;20038;-78
2023/03/23 09:45:38;;;;;;;2.00;1.20;;;;;;;;;;6049465;23;20423;-79
2023/03/23 09:48:47;;;;;;;2.38;1.60;;;;;;;;;;6072684;23;20026;-79
2023/03/23 09:51:16;;;;;;;1.77;1.13;;;;;;;;;;6025113;23;20030;-79
2023/03/23 09:53:43;;;;;;;4.07;1.40;;;;;;;;;;6072176;23;20458;-79
2023/03/23 09:56:11;;;;;;;2.13;1.42;;;;;;;;;;6048977;23;20077;-80
2023/03/23 09:59:24;;;;;;;2.40;1.27;;;;;;;;;;6048785;23;20097;-77
2023/03/23 10:01:52;;;;;;;2.53;1.50;;;;;;;;;;6067787;23;20026;-79
2023/03/23 10:04:38;;;;;;;1.63;1.25;;;;;;;;;;6047873;23;20500;-76
2023/03/23 10:07:13;;;;;;;3.30;1.38;;;;;;;;;;6072645;23;20026;-78
2023/03/23 10:09:40;;;;;;;1.55;1.40;;;;;;;;;;6048568;23;20461;-79
2023/03/23 10:12:33;;;;;;;2.33;1.00;;;;;;;;;;6048305;23;20026;-78
2023/03/23 10:15:19;;;;;;;1.70;1.27;;;;;;;;;;6096283;23;20073;-80
2023/03/23 10:18:17;;;;;;;2.00;1.30;;;;;;;;;;6096089;23;20022;-80
2023/03/23 10:20:58;;;;;;;2.03;1.40;;;;;;;;;;6072239;23;20552;-78
2023/03/23 10:23:40;;;;;;;2.50;1.30;;;;;;;;;;6047763;23;20025;-79
2023/03/23 10:26:20;;;;;;;1.48;1.10;;;;;;;;;;6072223;23;20125;-79
2023/03/23 10:28:52;;;;;;;2.55;1.38;;;;;;;;;;6072237;23;20019;-78
2023/03/23 10:31:34;;;;;;;1.17;1.00;;;;;;;;;;6047899;23;20034;-79
2023/03/23 10:34:09;;;;;;;1.52;1.00;;;;;;;;;;6047789;23;20018;-79
2023/03/23 10:36:48;;;;;;;2.33;1.30;;;;;;;;;;6047595;23;20023;-78
2023/03/23 10:39:18;;;;;;;3.83;1.10;;;;;;;;;;6047972;23;20469;-79
2023/03/23 10:41:43;;;;;;;4.00;1.20;;;;;;;;;;6048042;23;20027;-79
2023/03/23 10:44:15;;;;;;;1.80;1.00;;;;;;;;;;6047554;23;20014;-79
2023/03/23 10:46:48;;;;;;;1.83;1.37;;;;;;;;;;6049204;23;20022;-79
2023/03/23 10:49:23;;;;;;;1.25;1.10;;;;;;;;;;6050099;23;20022;-79
2023/03/23 10:52:14;;;;;;;2.88;1.02;;;;;;;;;;6050791;23;20022;-77
2023/03/23 10:54:49;;;;;;;3.25;1.20;;;;;;;;;;6073168;23;20023;-78
2023/03/23 10:57:28;;;;;;;3.88;1.20;;;;;;;;;;6048637;23;20436;-79
2023/03/23 11:00:16;;;;;;;1.35;1.00;;;;;;;;;;6047634;23;20109;-79
2023/03/23 11:02:47;;;;;;;2.85;1.98;;;;;;;;;;6095457;23;20023;-80
2023/03/23 11:05:17;;;;;;;3.65;1.42;;;;;;;;;;6048530;23;20080;-77
2023/03/23 11:07:50;;;;;;;4.40;1.35;;;;;;;;;;6044445;23;20022;-74
2023/03/23 11:10:26;;;;;;;;;;;;;;;;;;6045670;23;20022;-76
2023/03/23 11:12:52;;;;;;;1.48;1.23;;;;;;;;;;6093738;23;19917;-76
2023/03/23 11:15:27;;;;;;;1.42;1.27;;;;;;;;;;6045478;23;20018;-75
2023/03/23 11:18:04;;;;;;;2.72;1.33;;;;;;;;;;6046251;23;20046;-74
2023/03/23 11:20:37;;;;;;;2.45;1.10;;;;;;;;;;6045274;23;20360;-75
2023/03/23 11:23:13;;;;;;;1.17;1.00;;;;;;;;;;6043588;23;20049;-75
2023/03/23 11:26:20;;;;;;;3.90;1.33;;;;;;;;;;6043909;23;20081;-75
2023/03/23 11:28:59;;;;;;;1.75;1.40;;;;;;;;;;6039436;23;20022;-75
2023/03/23 11:31:31;;;;;;;2.42;1.13;;;;;;;;;;6091436;23;20077;-75
2023/03/23 11:34:05;;;;;;;2.53;1.55;;;;;;;;;;6043938;23;20701;-75
2023/03/23 11:36:35;;;;;;;3.33;1.10;;;;;;;;;;6044420;23;20022;-75
2023/03/23 11:39:05;;;;;;;2.90;1.30;;;;;;;;;;6044574;23;20029;-75
2023/03/23 11:41:35;;;;;;;1.75;1.25;;;;;;;;;;6044544;23;20030;-75
2023/03/23 11:44:09;;;;;;;2.10;1.40;;;;;;;;;;6044764;23;20015;-74
2023/03/23 11:46:46;;;;;;;2.05;1.20;;;;;;;;;;6048748;23;20033;-75
2023/03/23 11:49:38;;;;;;;1.98;1.75;;;;;;;;;;6067280;23;20025;-76
2023/03/23 11:52:13;;;;;;;2.07;1.53;;;;;;;;;;6066193;23;20109;-75
2023/03/23 11:54:47;;;;;;;1.75;1.10;;;;;;;;;;6043665;23;20041;-75
2023/03/23 11:57:13;;;;;;;2.10;1.20;;;;;;;;;;6036812;23;20037;-77
2023/03/23 11:59:40;;;;;;;1.92;1.52;;;;;;;;;;6043955;23;20018;-77
2023/03/23 12:02:27;;;;;;;2.08;1.13;;;;;;;;;;6046476;23;20045;-77
2023/03/23 12:05:31;;;;;;;3.42;1.40;;;;;;;;;;6045803;23;20532;-77
2023/03/23 12:08:06;;;;;;;3.10;1.45;;;;;;;;;;6045351;23;20053;-77
2023/03/23 12:10:42;;;;;;;2.45;1.50;;;;;;;;;;6046340;23;20049;-77
2023/03/23 12:13:21;;;;;;;2.90;1.27;;;;;;;;;;6046413;23;20469;-76
2023/03/23 12:16:19;;;;;;;1.40;1.05;;;;;;;;;;6069781;23;20121;-78
2023/03/23 12:19:17;;;;;;;1.80;1.20;;;;;;;;;;6040988;23;20072;-77
2023/03/23 12:22:13;;;;;;;1.30;1.20;;;;;;;;;;6070953;23;20057;-77
2023/03/23 12:25:01;;;;;;;2.17;1.20;;;;;;;;;;6057980;23;20027;-76
2023/03/23 12:27:40;;;;;;;2.58;1.35;;;;;;;;;;6096732;23;20030;-77
2023/03/23 12:30:31;;;;;;;3.08;1.38;;;;;;;;;;6095222;23;20014;-77
2023/03/23 12:33:17;;;;;;;1.10;1.00;;;;;;;;;;6092799;23;20057;-76
2023/03/23 12:36:05;;;;;;;1.83;1.20;;;;;;;;;;6069240;23;20038;-75
2023/03/23 12:38:46;;;;;;;2.03;1.40;;;;;;;;;;6071200;23;20078;-76
2023/03/23 12:41:17;;;;;;;2.47;1.40;;;;;;;;;;6117997;23;20014;-76
2023/03/23 12:43:52;;;;;;;2.22;1.30;;;;;;;;;;6092671;23;20270;-75
2023/03/23 12:46:44;;;;;;;2.50;1.60;;;;;;;;;;6069087;23;20050;-76
2023/03/23 12:49:16;;;;;;;2.35;1.30;;;;;;;;;;6067755;23;20029;-77
2023/03/23 12:51:57;;;;;;;1.80;1.30;;;;;;;;;;6091270;23;20041;-76
2023/03/23 12:54:40;;;;;;;1.75;1.38;;;;;;;;;;6068499;23;20018;-76
2023/03/23 12:57:27;;;;;;;5.03;1.60;;;;;;;;;;6067677;23;20034;-76
2023/03/23 13:00:34;;;;;;;1.85;1.30;;;;;;;;;;6117449;23;20026;-75
2023/03/23 13:03:00;;;;;;;1.75;1.65;;;;;;;;;;6120155;23;20018;-78
2023/03/23 13:06:06;;;;;;;2.50;1.33;;;;;;;;;;6096876;23;20018;-78
2023/03/23 13:08:35;;;;;;;3.65;1.52;;;;;;;;;;6040799;23;20014;-78
2023/03/23 13:11:05;;;;;;;2.65;1.50;;;;;;;;;;6063888;23;20031;-77
2023/03/23 13:13:44;;;;;;;1.85;1.42;;;;;;;;;;6067028;23;20022;-78
2023/03/23 13:16:16;;;;;;;2.92;1.40;;;;;;;;;;6059558;23;20473;-78
2023/03/23 13:18:47;;;;;;;4.07;1.80;;;;;;;;;;6072595;23;20019;-77
2023/03/23 13:21:31;;;;;;;1.75;1.40;;;;;;;;;;6048205;23;20023;-77
2023/03/23 13:24:10;;;;;;;1.88;1.35;;;;;;;;;;6072293;23;20018;-77
2023/03/23 13:26:42;;;;;;;2.30;1.60;;;;;;;;;;6047105;23;20026;-77
2023/03/23 13:29:20;;;;;;;3.05;1.50;;;;;;;;;;6047005;23;20041;-77
2023/03/23 13:31:46;;;;;;;4.78;1.63;;;;;;;;;;6046090;23;20429;-77
2023/03/23 13:34:22;;;;;;;2.42;1.40;;;;;;;;;;6046143;23;20398;-78
2023/03/23 13:36:56;;;;;;;1.73;1.52;;;;;;;;;;6070242;23;20042;-77
2023/03/23 13:39:48;;;;;;;2.67;1.60;;;;;;;;;;6074201;23;20025;-76
2023/03/23 13:42:14;;;;;;;2.00;1.50;;;;;;;;;;6052685;23;20027;-77
2023/03/23 13:44:49;;;;;;;2.83;1.92;;;;;;;;;;6060784;23;20021;-78
2023/03/23 13:47:20;;;;;;;3.58;1.50;;;;;;;;;;6089656;23;20046;-77
2023/03/23 13:50:10;;;;;;;2.17;1.63;;;;;;;;;;6090285;23;20049;-77
2023/03/23 13:52:43;;;;;;;2.85;1.60;;;;;;;;;;6043345;23;20022;-78
2023/03/23 13:55:15;;;;;;;2.25;1.42;;;;;;;;;;6090683;23;20163;-77
2023/03/23 13:58:02;;;;;;;2.08;1.45;;;;;;;;;;6090190;23;20026;-77
2023/03/23 14:00:34;;;;;;;2.88;1.38;;;;;;;;;;6063468;23;20038;-77
2023/03/23 14:03:09;;;;;;;3.17;1.80;;;;;;;;;;6066786;23;20074;-76
2023/03/23 14:05:57;;;;;;;4.13;1.40;;;;;;;;;;6064616;23;20050;-76
2023/03/23 14:08:25;;;;;;;2.50;1.55;;;;;;;;;;6092569;23;20042;-76
2023/03/23 14:10:56;;;;;;;2.25;1.48;;;;;;;;;;6067327;23;20014;-74
2023/03/23 14:13:37;;;;;;;2.70;1.50;;;;;;;;;;6119176;23;20030;-77
2023/03/23 14:16:23;;;;;;;1.67;1.40;;;;;;;;;;6094373;23;20053;-75
2023/03/23 14:18:58;;;;;;;2.38;1.38;;;;;;;;;;6118332;23;20053;-75
2023/03/23 14:21:39;;;;;;;4.60;1.48;;;;;;;;;;6117083;23;20041;-75
2023/03/23 14:24:28;;;;;;;3.28;1.60;;;;;;;;;;6064692;23;1263963;-76
2023/03/23 14:27:02;;;;;;;3.55;1.48;;;;;;;;;;6075205;23;20037;-76
2023/03/23 14:29:28;;;;;;;2.42;1.45;;;;;;;;;;6070668;23;20041;-75
2023/03/23 14:31:56;;;;;;;1.27;1.10;;;;;;;;;;6069567;23;20030;-76
2023/03/23 14:34:27;;;;;;;2.75;1.73;;;;;;;;;;6071328;23;20014;-76
2023/03/23 14:36:54;;;;;;;2.78;1.42;;;;;;;;;;6070092;23;20030;-75
2023/03/23 14:39:31;;;;;;;2.85;1.85;;;;;;;;;;6070471;23;20065;-75
2023/03/23 14:42:06;;;;;;;1.70;1.60;;;;;;;;;;6070776;23;20014;-76
2023/03/23 14:44:33;;;;;;;2.53;2.05;;;;;;;;;;6072074;23;20110;-76
2023/03/23 14:47:02;;;;;;;2.65;1.77;;;;;;;;;;6071520;23;20026;-76
2023/03/23 14:49:35;;;;;;;2.70;2.03;;;;;;;;;;6072360;23;20038;-75
2023/03/23 14:52:21;;;;;;;;;;;;;;;;;;6071277;23;20243;-76
2023/03/23 14:54:46;;;;;;;2.10;1.30;;;;;;;;;;6068672;23;19944;-75
2023/03/23 14:57:17;;;;;;;3.70;1.73;;;;;;;;;;6069810;23;20030;-76
2023/03/23 14:59:44;;;;;;;1.90;1.33;;;;;;;;;;6117028;23;20034;-77
2023/03/23 15:02:17;;;;;;;2.45;1.38;;;;;;;;;;6071028;23;20026;-75
2023/03/23 15:04:43;;;;;;;;;;;;;;;;;;6072327;23;20007;-75
2023/03/23 15:07:09;;;;;;;2.53;1.40;;;;;;;;;;6119569;23;19921;-77